Time;durP1;ratioP1;P1;durP2;ratioP2;P2;SDS_P1;SDS_P2;PMS_P1;PMS_P2;Temp;Humidity;BMP_temperature;BMP_pressure;BME280_temperature;BME280_humidity;BME280_pressure;Samples;Min_cycle;Max_cycle;Signal;HPM_P1;HPM_P2
2022/05/08 00:00:10;;;;;;;3.00;2.90;;;19.90;44.70;;;;;;5061823;28;20244;-59
2022/05/08 00:02:36;;;;;;;2.70;2.50;;;19.90;44.60;;;;;;5060178;28;20213;-59
2022/05/08 00:05:01;;;;;;;3.60;3.40;;;19.90;44.60;;;;;;5060821;28;20932;-58
2022/05/08 00:07:27;;;;;;;3.00;2.80;;;19.90;44.60;;;;;;5056851;28;20586;-58
2022/05/08 00:09:52;;;;;;;3.47;3.17;;;19.90;44.60;;;;;;5060571;28;20223;-59
2022/05/08 00:12:19;;;;;;;3.50;3.20;;;19.90;44.60;;;;;;5053545;28;20701;-59
2022/05/08 00:14:45;;;;;;;3.17;2.97;;;19.90;44.60;;;;;;5060521;28;20230;-59
2022/05/08 00:17:13;;;;;;;3.63;3.37;;;19.90;44.60;;;;;;5059632;28;20983;-59
2022/05/08 00:19:39;;;;;;;2.70;2.50;;;19.90;44.60;;;;;;5058525;28;21011;-60
2022/05/08 00:22:06;;;;;;;3.17;2.97;;;19.90;44.60;;;;;;5061771;28;20467;-59
2022/05/08 00:24:32;;;;;;;3.30;3.10;;;19.90;44.60;;;;;;5059009;28;20854;-59
2022/05/08 00:26:57;;;;;;;3.20;3.00;;;19.90;44.60;;;;;;5060728;28;20431;-58
2022/05/08 00:29:23;;;;;;;3.07;2.83;;;19.90;44.60;;;;;;5058904;28;20437;-59
2022/05/08 00:31:49;;;;;;;2.93;2.80;;;19.90;44.60;;;;;;5059066;28;21150;-59
2022/05/08 00:34:14;;;;;;;2.80;2.60;;;19.90;45.40;;;;;;5056365;28;20283;-59
2022/05/08 00:36:40;;;;;;;3.27;3.10;;;19.90;44.70;;;;;;5056289;28;20308;-59
2022/05/08 00:39:05;;;;;;;2.87;2.77;;;19.90;44.70;;;;;;5057352;28;20242;-58
2022/05/08 00:41:31;;;;;;;3.30;3.10;;;19.90;44.60;;;;;;5057483;28;20553;-60
2022/05/08 00:43:57;;;;;;;3.10;2.90;;;19.90;44.70;;;;;;5073906;28;20751;-58
2022/05/08 00:46:22;;;;;;;2.87;2.57;;;19.90;44.70;;;;;;5081875;28;20718;-60
2022/05/08 00:48:48;;;;;;;2.73;2.63;;;19.90;44.70;;;;;;5080088;28;20217;-60
2022/05/08 00:51:17;;;;;;;4.00;3.80;;;19.90;44.70;;;;;;5087796;28;20229;-59
2022/05/08 00:54:03;;;;;;;3.07;2.87;;;19.90;44.70;;;;;;5079997;27;20497;-61
2022/05/08 00:56:28;;;;;;;3.17;2.97;;;19.90;44.80;;;;;;5084030;28;20454;-59
2022/05/08 00:58:55;;;;;;;2.70;2.60;;;19.90;44.80;;;;;;5083197;28;21344;-59
2022/05/08 01:01:21;;;;;;;2.60;2.50;;;19.90;44.80;;;;;;5117155;27;20571;-59
2022/05/08 01:03:47;;;;;;;3.10;2.90;;;19.90;44.80;;;;;;5086851;27;20458;-59
2022/05/08 01:06:15;;;;;;;3.20;3.00;;;19.90;44.80;;;;;;5081184;28;20222;-59
2022/05/08 01:08:46;;;;;;;3.00;2.80;;;19.90;44.80;;;;;;5081049;28;20567;-60
2022/05/08 01:11:12;;;;;;;3.47;3.27;;;19.90;44.80;;;;;;5087459;28;20450;-59
2022/05/08 01:13:39;;;;;;;2.87;2.77;;;19.90;44.90;;;;;;5082694;27;20548;-60
2022/05/08 01:16:09;;;;;;;2.90;2.80;;;19.90;45.60;;;;;;5080489;28;20442;-59
2022/05/08 01:18:35;;;;;;;2.70;2.60;;;19.90;44.90;;;;;;5078786;27;20995;-59
2022/05/08 01:21:01;;;;;;;2.70;2.60;;;19.90;44.90;;;;;;5080328;28;20489;-59
2022/05/08 01:23:27;;;;;;;2.77;2.67;;;19.90;44.90;;;;;;5080991;28;20224;-59
2022/05/08 01:25:55;;;;;;;3.20;3.00;;;19.90;44.90;;;;;;5083141;27;20822;-59
2022/05/08 01:28:22;;;;;;;2.40;2.30;;;19.90;44.90;;;;;;5080625;28;20224;-60
2022/05/08 01:30:53;;;;;;;2.93;2.73;;;19.90;44.90;;;;;;5085286;28;20439;-59
2022/05/08 01:33:20;;;;;;;3.10;3.00;;;19.90;44.90;;;;;;5085116;28;20470;-59
2022/05/08 01:35:46;;;;;;;2.67;2.57;;;19.90;45.00;;;;;;5089523;27;20512;-59
2022/05/08 01:38:13;;;;;;;3.13;2.93;;;19.90;45.00;;;;;;5085773;28;21041;-60
2022/05/08 01:40:39;;;;;;;2.73;2.63;;;19.90;45.00;;;;;;5082758;28;20454;-59
2022/05/08 01:43:05;;;;;;;3.00;2.80;;;19.90;45.00;;;;;;5077044;28;20483;-59
2022/05/08 01:45:32;;;;;;;2.57;2.47;;;19.90;44.90;;;;;;5083340;28;20445;-58
2022/05/08 01:50:42;;;;;;;2.50;2.40;;;19.90;44.90;;;;;;5077062;27;20962;-60
2022/05/08 01:53:08;;;;;;;3.20;3.10;;;19.90;44.90;;;;;;5086636;27;20469;-58
2022/05/08 01:55:34;;;;;;;3.03;2.93;;;19.90;44.90;;;;;;5076282;28;20222;-59
2022/05/08 01:58:01;;;;;;;2.60;2.50;;;19.90;44.90;;;;;;5086568;28;20454;-59
2022/05/08 02:00:28;;;;;;;2.83;2.73;;;19.90;45.00;;;;;;5080870;28;20458;-59
2022/05/08 02:02:57;;;;;;;2.80;2.67;;;19.90;45.00;;;;;;5080336;28;20499;-59
2022/05/08 02:05:23;;;;;;;2.90;2.70;;;19.90;45.70;;;;;;5086553;28;20999;-59
2022/05/08 02:07:49;;;;;;;2.33;2.23;;;19.90;44.90;;;;;;5080138;27;20513;-60
2022/05/08 02:10:16;;;;;;;2.40;2.30;;;19.90;45.00;;;;;;5080106;28;20431;-59
2022/05/08 02:12:43;;;;;;;2.60;2.50;;;19.90;44.90;;;;;;5085126;27;20443;-60
2022/05/08 02:15:10;;;;;;;3.20;3.00;;;19.90;45.00;;;;;;5081781;28;20775;-60
2022/05/08 02:17:37;;;;;;;2.70;2.50;;;19.90;45.00;;;;;;5082250;28;20440;-59
2022/05/08 02:20:06;;;;;;;2.50;2.40;;;19.90;45.00;;;;;;5080913;28;20446;-59
2022/05/08 02:22:32;;;;;;;2.33;2.23;;;19.90;45.00;;;;;;5079832;28;20421;-58
2022/05/08 02:24:57;;;;;;;2.40;2.20;;;19.90;45.10;;;;;;5086133;27;20482;-59
2022/05/08 02:27:23;;;;;;;2.80;2.70;;;19.90;45.00;;;;;;5082236;27;20216;-59
2022/05/08 02:29:50;;;;;;;2.60;2.50;;;19.90;45.00;;;;;;5081234;28;20222;-59
2022/05/08 02:32:16;;;;;;;2.27;2.17;;;19.90;45.10;;;;;;5081348;27;20210;-60
2022/05/08 02:34:41;;;;;;;2.30;2.20;;;19.90;45.10;;;;;;5086739;27;20547;-60
2022/05/08 02:37:07;;;;;;;2.40;2.20;;;19.90;45.10;;;;;;5081603;27;20505;-59
2022/05/08 02:39:33;;;;;;;2.33;2.23;;;19.90;45.10;;;;;;5082115;28;20256;-59
2022/05/08 02:41:58;;;;;;;2.80;2.67;;;19.90;45.00;;;;;;5080898;28;20267;-58
2022/05/08 02:44:24;;;;;;;2.03;1.93;;;19.90;45.10;;;;;;5082098;28;21786;-59
2022/05/08 02:46:50;;;;;;;2.20;2.10;;;19.90;45.10;;;;;;5084575;27;20677;-59
2022/05/08 02:49:15;;;;;;;2.53;2.43;;;19.90;45.10;;;;;;5079863;28;20217;-58
2022/05/08 02:51:41;;;;;;;2.40;2.30;;;19.80;45.80;;;;;;5080703;28;20225;-60
2022/05/08 02:54:07;;;;;;;2.83;2.67;;;19.90;45.10;;;;;;5083036;28;20236;-60
2022/05/08 02:59:16;;;;;;;3.10;2.00;;;19.90;45.10;;;;;;5085918;27;20278;-60
2022/05/08 03:01:42;;;;;;;2.60;2.50;;;19.80;45.00;;;;;;5082709;27;20455;-59
2022/05/08 03:04:08;;;;;;;2.13;2.03;;;19.90;45.10;;;;;;5080704;27;20274;-58
2022/05/08 03:06:33;;;;;;;2.20;2.10;;;19.90;45.10;;;;;;5078410;27;20266;-59
2022/05/08 03:08:59;;;;;;;3.60;2.30;;;19.90;45.20;;;;;;5079462;27;20275;-58
2022/05/08 03:11:25;;;;;;;2.50;2.40;;;19.90;45.20;;;;;;5082159;27;20233;-59
2022/05/08 03:13:51;;;;;;;2.50;2.30;;;19.90;45.20;;;;;;5080193;27;20307;-60
2022/05/08 03:16:17;;;;;;;2.20;2.10;;;19.80;45.10;;;;;;5077284;27;20230;-60
2022/05/08 03:18:44;;;;;;;2.30;2.20;;;19.80;45.10;;;;;;5076827;27;20465;-60
2022/05/08 03:21:11;;;;;;;2.50;2.30;;;19.90;45.20;;;;;;5083837;27;20456;-58
2022/05/08 03:23:38;;;;;;;2.30;2.20;;;19.80;45.10;;;;;;5080077;27;20437;-59
2022/05/08 03:26:04;;;;;;;2.20;2.10;;;19.90;45.20;;;;;;5080679;27;20508;-58
2022/05/08 03:28:31;;;;;;;2.23;2.13;;;19.80;45.10;;;;;;5078939;27;20445;-59
2022/05/08 03:30:59;;;;;;;2.13;2.03;;;19.80;45.20;;;;;;5077331;27;20449;-60
2022/05/08 03:33:28;;;;;;;2.17;2.07;;;19.80;45.10;;;;;;5082130;27;20783;-60
2022/05/08 03:35:54;;;;;;;2.20;2.10;;;19.80;45.10;;;;;;5079670;27;20439;-59
2022/05/08 03:38:19;;;;;;;2.43;2.23;;;19.80;45.10;;;;;;5077736;28;20455;-59
2022/05/08 03:40:45;;;;;;;2.30;2.10;;;19.80;45.10;;;;;;5078648;27;20222;-59
2022/05/08 03:43:11;;;;;;;2.10;2.00;;;19.80;45.20;;;;;;5075823;27;20717;-59
2022/05/08 03:45:36;;;;;;;2.10;2.00;;;19.80;45.90;;;;;;5075775;27;20591;-59
2022/05/08 03:48:02;;;;;;;2.27;2.17;;;19.80;45.20;;;;;;5081517;27;20568;-59
2022/05/08 03:50:29;;;;;;;1.80;1.70;;;19.80;45.20;;;;;;5081554;27;20217;-59
2022/05/08 03:52:59;;;;;;;2.00;1.90;;;19.80;45.20;;;;;;5076375;28;20489;-59
2022/05/08 03:55:25;;;;;;;2.20;2.10;;;19.80;45.20;;;;;;5077875;27;20484;-59
2022/05/08 03:57:50;;;;;;;2.20;2.10;;;19.80;45.20;;;;;;5078248;27;20446;-59
2022/05/08 04:00:17;;;;;;;2.33;2.13;;;19.80;45.20;;;;;;5083006;27;20303;-59
2022/05/08 04:02:43;;;;;;;1.97;1.87;;;19.80;45.20;;;;;;5081432;27;20225;-61
2022/05/08 04:05:09;;;;;;;2.00;1.90;;;19.80;45.20;;;;;;5077045;28;20438;-59
2022/05/08 04:07:35;;;;;;;2.20;2.00;;;19.80;45.20;;;;;;5079594;27;20583;-62
2022/05/08 04:10:01;;;;;;;2.10;2.00;;;19.80;45.30;;;;;;5083662;28;20428;-59
2022/05/08 04:12:26;;;;;;;2.10;2.00;;;19.80;45.20;;;;;;5087219;27;20229;-59
2022/05/08 04:14:53;;;;;;;2.43;2.03;;;19.80;45.20;;;;;;5075758;27;20364;-60
2022/05/08 04:17:19;;;;;;;2.63;2.00;;;19.80;45.20;;;;;;5081827;27;20241;-59
2022/05/08 04:19:46;;;;;;;2.40;2.30;;;19.80;46.00;;;;;;5077011;27;20469;-59
2022/05/08 04:24:57;;;;;;;2.00;1.90;;;19.80;45.10;;;;;;5079342;28;20952;-61
2022/05/08 04:27:23;;;;;;;1.90;1.80;;;19.80;45.10;;;;;;5076217;27;20444;-60
2022/05/08 04:29:48;;;;;;;2.50;2.30;;;19.80;45.10;;;;;;5076189;28;20417;-59
2022/05/08 04:32:14;;;;;;;2.10;2.00;;;19.80;45.20;;;;;;5077400;28;20264;-58
2022/05/08 04:34:39;;;;;;;1.90;1.80;;;19.80;45.20;;;;;;5079655;27;20260;-59
2022/05/08 04:37:05;;;;;;;2.00;1.90;;;19.80;45.20;;;;;;5079744;27;20201;-58
2022/05/08 04:39:31;;;;;;;2.30;2.20;;;19.80;45.20;;;;;;5078319;28;20694;-58
2022/05/08 04:41:56;;;;;;;2.10;2.00;;;19.80;45.20;;;;;;5078147;28;20248;-61
2022/05/08 04:44:22;;;;;;;1.97;1.87;;;19.80;45.20;;;;;;5079988;27;20208;-58
2022/05/08 04:46:48;;;;;;;2.33;2.23;;;19.80;45.20;;;;;;5078452;28;20213;-59
2022/05/08 04:49:14;;;;;;;2.10;2.00;;;19.80;45.20;;;;;;5075306;28;20701;-58
2022/05/08 04:51:39;;;;;;;1.80;1.70;;;19.80;45.20;;;;;;5081260;28;20244;-60
2022/05/08 04:54:05;;;;;;;2.30;2.20;;;19.80;45.20;;;;;;5082131;28;20789;-59
2022/05/08 04:56:31;;;;;;;2.27;2.17;;;19.80;45.20;;;;;;5074585;28;20320;-61
2022/05/08 04:58:57;;;;;;;2.20;2.10;;;19.80;45.20;;;;;;5079220;27;20231;-58
2022/05/08 05:01:22;;;;;;;2.13;1.87;;;19.80;45.30;;;;;;5078645;28;20716;-60
2022/05/08 05:03:49;;;;;;;2.20;2.10;;;19.80;46.00;;;;;;5079808;28;20463;-58
2022/05/08 05:06:14;;;;;;;2.10;2.00;;;19.80;45.20;;;;;;5076563;27;20209;-58
2022/05/08 05:08:40;;;;;;;2.53;2.33;;;19.80;45.20;;;;;;5072713;27;20454;-59
2022/05/08 05:11:08;;;;;;;2.17;2.07;;;19.80;45.20;;;;;;5075284;27;20225;-59
2022/05/08 05:13:34;;;;;;;2.07;1.97;;;19.80;45.20;;;;;;5079778;28;20229;-56
2022/05/08 05:16:00;;;;;;;2.30;2.20;;;19.80;45.20;;;;;;5078676;28;20488;-56
2022/05/08 05:18:25;;;;;;;2.30;2.20;;;19.80;45.20;;;;;;5080428;28;20533;-56
2022/05/08 05:20:51;;;;;;;2.50;2.40;;;19.80;45.20;;;;;;5077590;27;20801;-58
2022/05/08 05:23:16;;;;;;;2.30;2.20;;;19.80;45.20;;;;;;5083064;28;20315;-58
2022/05/08 05:25:42;;;;;;;2.53;2.33;;;19.80;45.20;;;;;;5083144;28;20220;-57
2022/05/08 05:28:08;;;;;;;2.50;2.30;;;19.80;45.20;;;;;;5081591;28;20659;-56
2022/05/08 05:30:34;;;;;;;2.23;2.13;;;19.80;45.20;;;;;;5080629;28;20220;-56
2022/05/08 05:32:59;;;;;;;2.20;2.10;;;19.80;45.20;;;;;;5081951;27;20900;-58
2022/05/08 05:35:25;;;;;;;2.30;2.20;;;19.80;45.20;;;;;;5080600;27;20274;-57
2022/05/08 05:37:50;;;;;;;2.57;2.37;;;19.80;45.20;;;;;;5076354;28;20300;-56
2022/05/08 05:40:16;;;;;;;2.00;1.90;;;19.80;45.20;;;;;;5079598;28;20220;-56
2022/05/08 05:42:42;;;;;;;2.10;2.00;;;19.80;45.20;;;;;;5076396;28;20217;-59
2022/05/08 05:45:07;;;;;;;2.10;2.00;;;19.80;45.20;;;;;;5087617;28;20596;-56
2022/05/08 05:50:19;;;;;;;2.30;2.20;;;19.80;45.20;;;;;;5079158;28;20632;-57
2022/05/08 05:52:45;;;;;;;2.13;2.03;;;19.80;45.20;;;;;;5078736;28;20450;-58
2022/05/08 05:55:11;;;;;;;2.17;2.00;;;19.80;45.10;;;;;;5086043;27;20478;-56
2022/05/08 05:57:38;;;;;;;2.03;1.93;;;19.80;45.10;;;;;;5079759;27;20746;-57
2022/05/08 06:00:06;;;;;;;2.30;2.20;;;19.80;45.10;;;;;;5080394;28;20438;-56
2022/05/08 06:02:32;;;;;;;2.33;2.10;;;19.80;45.90;;;;;;5080937;28;20446;-56
2022/05/08 06:04:57;;;;;;;2.53;2.40;;;19.80;45.10;;;;;;5088139;28;20929;-56
2022/05/08 06:07:23;;;;;;;2.37;2.27;;;19.90;45.10;;;;;;5086868;28;20238;-56
2022/05/08 06:09:49;;;;;;;3.00;2.70;;;19.90;45.10;;;;;;5087070;27;20218;-56
2022/05/08 06:12:14;;;;;;;2.30;2.20;;;19.90;45.10;;;;;;5077382;28;20671;-58
2022/05/08 06:14:41;;;;;;;2.03;1.93;;;19.90;45.10;;;;;;5081195;28;20244;-58
2022/05/08 06:17:06;;;;;;;2.40;2.30;;;19.90;45.00;;;;;;5080707;28;20245;-59
2022/05/08 06:19:32;;;;;;;2.20;2.10;;;19.90;45.10;;;;;;5080339;27;20445;-58
2022/05/08 06:21:58;;;;;;;2.33;2.23;;;19.90;45.00;;;;;;5081923;28;20214;-58
2022/05/08 06:24:24;;;;;;;2.30;2.20;;;19.90;44.80;;;;;;5084069;27;20221;-57
2022/05/08 06:26:49;;;;;;;2.40;2.30;;;20.00;44.70;;;;;;5080422;28;20698;-56
2022/05/08 06:29:15;;;;;;;2.87;2.67;;;20.00;44.70;;;;;;5083373;27;20221;-57
2022/05/08 06:31:41;;;;;;;2.77;2.67;;;20.00;44.70;;;;;;5081316;27;20316;-58
2022/05/08 06:34:08;;;;;;;2.80;2.60;;;20.00;44.70;;;;;;5081587;28;20242;-56
2022/05/08 06:36:33;;;;;;;2.00;1.90;;;20.00;44.70;;;;;;5082277;27;20339;-57
2022/05/08 06:38:59;;;;;;;2.40;2.30;;;20.00;44.70;;;;;;5082700;28;20463;-57
2022/05/08 06:41:26;;;;;;;2.20;2.10;;;20.00;44.70;;;;;;5081872;27;20229;-56
2022/05/08 06:43:53;;;;;;;2.40;2.30;;;20.00;44.70;;;;;;5083683;27;20319;-57
2022/05/08 06:46:19;;;;;;;2.43;2.33;;;20.00;44.70;;;;;;5080000;27;21015;-56
2022/05/08 06:48:44;;;;;;;2.87;2.73;;;20.00;44.70;;;;;;5082560;28;20510;-56
2022/05/08 06:51:11;;;;;;;2.90;2.60;;;20.00;44.70;;;;;;5084538;28;20700;-57
2022/05/08 06:53:37;;;;;;;2.53;2.43;;;20.00;44.70;;;;;;5075683;28;20237;-56
2022/05/08 06:56:02;;;;;;;3.10;2.90;;;20.10;44.80;;;;;;5081514;27;20468;-56
2022/05/08 06:58:28;;;;;;;2.63;2.37;;;20.00;44.70;;;;;;5082272;27;20213;-56
2022/05/08 07:03:39;;;;;;;2.90;2.70;;;20.10;44.80;;;;;;5079319;28;20294;-56
2022/05/08 07:06:05;;;;;;;2.70;2.60;;;20.10;44.80;;;;;;5078524;27;20831;-56
2022/05/08 07:08:30;;;;;;;2.53;2.43;;;20.10;44.80;;;;;;5084775;27;20961;-57
2022/05/08 07:10:56;;;;;;;2.70;2.50;;;20.10;44.80;;;;;;5079119;28;20453;-56
2022/05/08 07:13:25;;;;;;;3.00;2.40;;;20.10;44.80;;;;;;5078962;27;20245;-57
2022/05/08 07:15:52;;;;;;;2.37;2.27;;;20.00;44.70;;;;;;5078729;28;20210;-55
2022/05/08 07:18:18;;;;;;;2.70;2.50;;;20.00;44.70;;;;;;5082509;28;20469;-56
2022/05/08 07:20:44;;;;;;;2.27;2.17;;;20.10;44.80;;;;;;5084967;27;20503;-56
2022/05/08 07:23:09;;;;;;;3.97;3.03;;;20.10;44.80;;;;;;5083836;28;20511;-56
2022/05/08 07:25:35;;;;;;;2.90;2.70;;;20.00;44.70;;;;;;5078752;28;20221;-57
2022/05/08 07:28:00;;;;;;;2.50;2.40;;;20.00;44.60;;;;;;5085762;27;20248;-56
2022/05/08 07:30:26;;;;;;;2.87;2.67;;;20.00;44.70;;;;;;5081666;27;20589;-58
2022/05/08 07:32:52;;;;;;;2.73;2.53;;;20.00;44.70;;;;;;5081975;27;20736;-58
2022/05/08 07:38:03;;;;;;;2.90;2.50;;;20.00;44.70;;;;;;5078401;28;20694;-57
2022/05/08 07:40:29;;;;;;;2.90;2.70;;;20.00;44.70;;;;;;5080918;28;20442;-56
2022/05/08 07:42:55;;;;;;;2.43;2.23;;;20.00;44.70;;;;;;5076173;28;20456;-56
2022/05/08 07:45:21;;;;;;;2.33;2.23;;;20.00;44.70;;;;;;5079593;27;20265;-57
2022/05/08 07:47:46;;;;;;;3.47;3.27;;;20.00;44.70;;;;;;5077699;27;20466;-57
2022/05/08 07:50:12;;;;;;;2.63;2.50;;;20.00;44.70;;;;;;5079626;28;20254;-57
2022/05/08 07:52:39;;;;;;;2.50;2.40;;;20.00;44.70;;;;;;5075966;28;20223;-58
2022/05/08 07:55:06;;;;;;;3.90;2.63;;;20.00;44.70;;;;;;5077382;28;20225;-58
2022/05/08 07:57:31;;;;;;;2.47;2.37;;;20.00;44.70;;;;;;5058654;28;21453;-57
2022/05/08 07:59:57;;;;;;;2.40;2.30;;;20.00;44.70;;;;;;5061609;28;20458;-57
2022/05/08 08:02:22;;;;;;;2.43;2.33;;;20.00;44.70;;;;;;5058140;28;20296;-57
2022/05/08 08:04:48;;;;;;;2.80;2.60;;;20.00;44.70;;;;;;5058773;28;20258;-57
2022/05/08 08:07:14;;;;;;;2.77;2.57;;;20.00;44.70;;;;;;5057524;28;20225;-58
2022/05/08 08:09:39;;;;;;;2.73;2.53;;;20.00;44.70;;;;;;5062926;28;20444;-59
2022/05/08 08:12:05;;;;;;;2.47;2.27;;;20.00;44.70;;;;;;5062994;28;20666;-57
2022/05/08 08:14:31;;;;;;;2.90;2.80;;;20.00;44.70;;;;;;5060949;28;20727;-57
2022/05/08 08:16:56;;;;;;;2.70;2.50;;;20.00;44.70;;;;;;5059324;28;20260;-57
2022/05/08 08:19:22;;;;;;;3.53;2.43;;;20.00;44.70;;;;;;5059864;28;20230;-57
2022/05/08 08:21:48;;;;;;;2.67;2.50;;;20.00;44.70;;;;;;5059718;28;20224;-57
2022/05/08 08:24:14;;;;;;;2.40;2.30;;;20.00;44.70;;;;;;5058702;28;20222;-56
2022/05/08 08:26:40;;;;;;;2.73;2.53;;;20.00;44.70;;;;;;5056797;28;20309;-56
2022/05/08 08:29:06;;;;;;;2.70;2.50;;;20.00;44.70;;;;;;5062776;28;20457;-56
2022/05/08 08:31:32;;;;;;;3.27;2.40;;;20.00;44.70;;;;;;5064155;28;20426;-57
2022/05/08 08:33:58;;;;;;;3.00;2.80;;;20.00;44.70;;;;;;5064882;28;20467;-56
2022/05/08 08:36:24;;;;;;;2.67;2.47;;;20.00;44.70;;;;;;5056378;28;20248;-58
2022/05/08 08:38:50;;;;;;;3.70;3.23;;;20.00;44.70;;;;;;5058740;28;20206;-57
2022/05/08 08:41:21;;;;;;;2.60;2.40;;;20.00;44.70;;;;;;5056900;28;20508;-56
2022/05/08 08:49:22;;;;;;;2.73;2.40;;;20.00;44.70;;;;;;5056640;28;20457;-56
2022/05/08 08:51:49;;;;;;;2.97;2.77;;;20.00;44.70;;;;;;5061351;28;20452;-55
2022/05/08 08:54:21;;;;;;;2.97;2.23;;;20.00;44.70;;;;;;5055680;28;20463;-56
2022/05/08 08:56:48;;;;;;;2.70;2.37;;;20.00;44.70;;;;;;5056190;28;20730;-57
2022/05/08 08:59:13;;;;;;;2.27;2.13;;;20.00;45.40;;;;;;5055800;28;20576;-56
2022/05/08 09:01:41;;;;;;;2.63;2.43;;;20.00;44.70;;;;;;5057415;28;20541;-57
2022/05/08 09:04:08;;;;;;;4.03;3.17;;;20.00;44.70;;;;;;5058357;28;20238;-57
2022/05/08 09:06:44;;;;;;;2.30;2.10;;;20.00;44.70;;;;;;5065818;28;20960;-56
2022/05/08 09:09:27;;;;;;;3.03;2.83;;;20.00;44.70;;;;;;5061484;28;20421;-56
2022/05/08 09:11:54;;;;;;;2.50;2.30;;;20.00;44.70;;;;;;5061043;28;20479;-56
2022/05/08 09:14:33;;;;;;;2.83;2.20;;;20.00;44.70;;;;;;5062907;28;20433;-56
2022/05/08 09:17:08;;;;;;;2.77;2.57;;;20.00;44.70;;;;;;5064883;28;20466;-56
2022/05/08 09:19:39;;;;;;;2.37;2.27;;;20.00;44.70;;;;;;5066959;28;20821;-56
2022/05/08 09:22:06;;;;;;;2.30;2.20;;;20.00;44.70;;;;;;5064042;28;20572;-60
2022/05/08 09:24:32;;;;;;;2.47;2.37;;;20.00;44.70;;;;;;5069161;28;20478;-57
2022/05/08 09:27:14;;;;;;;2.83;2.50;;;20.00;44.70;;;;;;5063179;28;21001;-56
2022/05/08 09:29:40;;;;;;;2.17;2.07;;;20.00;44.60;;;;;;5065949;28;20793;-57
2022/05/08 09:32:07;;;;;;;2.77;2.57;;;20.00;45.50;;;;;;5063146;28;20930;-56
2022/05/08 09:34:57;;;;;;;3.10;2.90;;;20.00;44.70;;;;;;5062331;28;20458;-57
2022/05/08 09:37:27;;;;;;;1.90;1.80;;;20.00;44.70;;;;;;5062944;28;20478;-57
2022/05/08 09:40:19;;;;;;;2.57;2.37;;;20.00;44.70;;;;;;5059750;28;20843;-56
2022/05/08 09:42:45;;;;;;;2.37;2.27;;;20.00;44.70;;;;;;5067367;28;20508;-57
2022/05/08 09:45:11;;;;;;;2.03;1.93;;;20.00;44.70;;;;;;5065273;28;20450;-58
2022/05/08 09:47:42;;;;;;;2.30;2.20;;;20.00;44.70;;;;;;5060490;28;20454;-58
2022/05/08 09:50:10;;;;;;;3.63;2.30;;;20.00;44.70;;;;;;5061447;28;20302;-58
2022/05/08 09:52:40;;;;;;;4.03;2.10;;;20.00;44.70;;;;;;5058560;28;21003;-56
2022/05/08 09:55:07;;;;;;;2.40;2.30;;;20.00;44.70;;;;;;5072418;28;20446;-57
2022/05/08 09:57:33;;;;;;;3.30;2.10;;;20.00;44.70;;;;;;5062965;28;20538;-57
2022/05/08 10:00:00;;;;;;;2.90;2.03;;;20.00;44.80;;;;;;5059429;28;20819;-57
2022/05/08 10:02:26;;;;;;;2.43;2.30;;;20.00;44.80;;;;;;5063602;28;20232;-56
2022/05/08 10:04:52;;;;;;;2.40;2.20;;;20.00;44.70;;;;;;5062387;28;20448;-56
2022/05/08 10:07:19;;;;;;;2.60;2.40;;;20.00;44.70;;;;;;5063586;28;20697;-57
2022/05/08 10:15:20;;;;;;;2.30;2.20;;;20.00;44.80;;;;;;5058778;28;20517;-58
2022/05/08 10:17:46;;;;;;;1.93;1.83;;;20.00;44.80;;;;;;5060971;28;20805;-56
2022/05/08 10:20:11;;;;;;;2.27;2.17;;;20.00;44.90;;;;;;5061248;28;20450;-58
2022/05/08 10:22:48;;;;;;;2.07;1.97;;;20.00;44.90;;;;;;5061400;28;20237;-57
2022/05/08 10:25:15;;;;;;;2.00;1.90;;;20.00;44.70;;;;;;5059223;28;20222;-56
2022/05/08 10:27:43;;;;;;;2.60;2.40;;;20.00;44.90;;;;;;5058787;28;20426;-59
2022/05/08 10:30:09;;;;;;;2.40;2.20;;;20.00;44.80;;;;;;5060082;28;20477;-59
2022/05/08 10:32:34;;;;;;;2.30;2.10;;;20.00;44.80;;;;;;5062495;28;20478;-57
2022/05/08 10:35:14;;;;;;;2.10;2.00;;;20.00;44.80;;;;;;5059889;28;20728;-57
2022/05/08 10:37:46;;;;;;;2.63;2.20;;;20.00;44.70;;;;;;5061895;28;20277;-57
2022/05/08 10:40:23;;;;;;;2.37;2.17;;;20.00;44.70;;;;;;5060932;28;20544;-58
2022/05/08 10:42:56;;;;;;;2.50;2.30;;;20.00;44.70;;;;;;5059262;28;20512;-59
2022/05/08 10:45:46;;;;;;;1.80;1.70;;;20.00;44.80;;;;;;5063226;28;20561;-58
2022/05/08 10:48:16;;;;;;;2.13;1.93;;;20.00;44.80;;;;;;5053994;28;20530;-58
2022/05/08 10:50:51;;;;;;;2.03;1.93;;;20.00;44.80;;;;;;5059977;28;20473;-59
2022/05/08 10:53:28;;;;;;;2.17;2.00;;;20.00;44.80;;;;;;5059405;28;21013;-58
2022/05/08 10:56:09;;;;;;;1.90;1.80;;;20.00;44.80;;;;;;5062744;28;20952;-57
2022/05/08 10:58:35;;;;;;;2.33;2.07;;;20.00;44.90;;;;;;5060420;28;20777;-57
2022/05/08 11:01:06;;;;;;;2.37;2.17;;;20.00;44.90;;;;;;5057411;28;20500;-58
2022/05/08 11:03:35;;;;;;;2.17;1.80;;;20.00;44.90;;;;;;5059265;28;20455;-58
2022/05/08 11:06:01;;;;;;;2.17;1.97;;;20.00;44.80;;;;;;5061749;28;20507;-57
2022/05/08 11:08:29;;;;;;;2.60;2.10;;;20.00;44.80;;;;;;5059305;28;20446;-57
2022/05/08 11:11:09;;;;;;;2.03;1.93;;;20.00;44.80;;;;;;5058656;28;20944;-57
2022/05/08 11:13:48;;;;;;;2.00;1.87;;;20.00;44.80;;;;;;5060593;28;21017;-58
2022/05/08 11:16:41;;;;;;;2.10;2.00;;;20.00;44.90;;;;;;5068727;28;20458;-57
2022/05/08 11:19:06;;;;;;;2.30;2.07;;;20.00;45.00;;;;;;5076728;28;20462;-57
2022/05/08 11:21:33;;;;;;;1.90;1.80;;;20.00;45.00;;;;;;5078895;28;20447;-58
2022/05/08 11:23:59;;;;;;;1.80;1.70;;;20.00;45.00;;;;;;5081665;28;20276;-58
2022/05/08 11:26:32;;;;;;;2.23;2.03;;;20.00;45.00;;;;;;5084656;27;20418;-57
2022/05/08 11:29:00;;;;;;;2.10;2.00;;;20.00;45.00;;;;;;5078277;27;20216;-58
2022/05/08 11:31:28;;;;;;;1.83;1.73;;;20.00;44.90;;;;;;5080266;27;20441;-57
2022/05/08 11:36:39;;;;;;;2.20;2.10;;;20.00;44.90;;;;;;5057497;28;20495;-57
2022/05/08 11:39:05;;;;;;;2.00;1.90;;;20.00;44.90;;;;;;5061247;28;20442;-57
2022/05/08 11:41:36;;;;;;;1.70;1.60;;;20.00;45.00;;;;;;5058899;28;20447;-57
2022/05/08 11:44:14;;;;;;;1.87;1.77;;;20.00;45.00;;;;;;5057796;28;20451;-57
2022/05/08 11:46:44;;;;;;;1.80;1.70;;;20.00;44.90;;;;;;5056655;28;21464;-57
2022/05/08 11:49:29;;;;;;;2.13;2.03;;;20.00;45.00;;;;;;5059671;28;20932;-57
2022/05/08 11:51:57;;;;;;;1.63;1.53;;;20.00;44.80;;;;;;5059135;28;20930;-57
2022/05/08 11:54:38;;;;;;;1.87;1.77;;;20.00;45.60;;;;;;5058851;28;20818;-58
2022/05/08 11:57:23;;;;;;;1.83;1.73;;;20.00;45.00;;;;;;5064724;28;21028;-57
2022/05/08 11:59:51;;;;;;;1.70;1.60;;;20.00;45.00;;;;;;5060057;28;20543;-57
2022/05/08 12:02:18;;;;;;;2.20;2.00;;;20.00;45.00;;;;;;5061170;28;20418;-60
2022/05/08 12:04:57;;;;;;;2.30;1.80;;;20.00;45.00;;;;;;5061994;28;20837;-60
2022/05/08 12:07:23;;;;;;;1.97;1.77;;;20.00;45.00;;;;;;5061078;28;20506;-60
2022/05/08 12:09:52;;;;;;;2.20;2.00;;;20.00;45.00;;;;;;5054871;28;20478;-59
2022/05/08 12:12:29;;;;;;;1.87;1.73;;;20.00;44.80;;;;;;5057702;28;20451;-60
2022/05/08 12:15:08;;;;;;;2.07;1.87;;;19.90;44.90;;;;;;5057659;28;20469;-59
2022/05/08 12:17:39;;;;;;;1.70;1.60;;;19.90;44.90;;;;;;5059814;28;20466;-61
2022/05/08 12:20:10;;;;;;;1.93;1.83;;;20.00;45.00;;;;;;5056493;28;20426;-60
2022/05/08 12:22:36;;;;;;;2.10;1.90;;;20.00;45.00;;;;;;5059985;28;20452;-60
2022/05/08 12:25:03;;;;;;;3.10;1.97;;;20.00;45.00;;;;;;5056588;28;20454;-59
2022/05/08 12:27:29;;;;;;;2.50;2.30;;;19.90;44.80;;;;;;5056435;28;20221;-60
2022/05/08 12:29:55;;;;;;;2.17;2.07;;;20.00;45.00;;;;;;5058543;28;20422;-60
2022/05/08 12:32:22;;;;;;;1.73;1.63;;;19.90;44.90;;;;;;5058592;28;20583;-59
2022/05/08 12:34:48;;;;;;;2.23;2.03;;;19.90;44.80;;;;;;5060920;28;20467;-60
2022/05/08 12:37:17;;;;;;;2.37;2.17;;;20.00;44.80;;;;;;5060273;28;20458;-59
2022/05/08 12:39:43;;;;;;;1.93;1.83;;;19.90;44.80;;;;;;5061919;28;20449;-60
2022/05/08 12:42:10;;;;;;;2.00;1.90;;;19.90;44.70;;;;;;5055421;28;20425;-61
2022/05/08 12:44:36;;;;;;;2.13;2.03;;;19.90;44.80;;;;;;5057599;28;20439;-59
2022/05/08 12:47:05;;;;;;;1.83;1.73;;;20.00;44.80;;;;;;5061453;28;20468;-60
2022/05/08 12:49:30;;;;;;;2.17;2.07;;;19.90;44.70;;;;;;5056195;28;20422;-59
2022/05/08 12:51:56;;;;;;;1.70;1.60;;;19.90;44.80;;;;;;5055279;28;20425;-59
2022/05/08 12:54:22;;;;;;;2.90;2.00;;;19.90;44.80;;;;;;5061065;28;20225;-60
2022/05/08 12:56:47;;;;;;;2.00;1.90;;;19.90;44.80;;;;;;5056270;28;20620;-60
2022/05/08 13:01:57;;;;;;;2.57;2.37;;;19.90;44.80;;;;;;5054294;28;20233;-59
2022/05/08 13:04:24;;;;;;;2.17;1.97;;;19.90;44.80;;;;;;5055595;28;20443;-60
2022/05/08 13:06:50;;;;;;;2.03;1.83;;;19.90;44.80;;;;;;5061757;28;20226;-60
2022/05/08 13:09:16;;;;;;;1.87;1.77;;;19.90;44.80;;;;;;5056842;28;20554;-60
2022/05/08 13:11:42;;;;;;;2.10;1.70;;;19.90;44.80;;;;;;5054283;28;20516;-61
2022/05/08 13:14:08;;;;;;;2.10;1.90;;;19.90;44.60;;;;;;5064308;28;20904;-60
2022/05/08 13:16:34;;;;;;;2.63;2.43;;;19.90;44.80;;;;;;5062195;28;20249;-60
2022/05/08 13:19:01;;;;;;;2.10;2.00;;;19.90;45.60;;;;;;5062132;28;20721;-60
2022/05/08 13:21:28;;;;;;;2.90;2.20;;;19.90;44.70;;;;;;5054940;28;20521;-60